Terminal Aerodrome Forecast
Issued by NWS

Home | Current Version | Previous Version | Text Only | Print | Product List | Glossary On
Versions: 1 2 3 4 5 6 7 8 9 10 11 12 13 14 15 16 17 18 19 20 21 22 23 24 25 26 27 28 29 30 31 32 33
000
FTUS42 KMHX 260538
TAFPGV
TAF
KPGV 260538Z 2606/2706 36006KT 2SM -DZ BR OVC003
     FM261400 34006KT P6SM OVC006
     FM261700 33006KT P6SM BKN015
     FM262100 34004KT P6SM BKN080
     FM270500 00000KT 4SM BR BKN004
     AMD LTD TO CLD VIS AND WIND=

USA.gov is the U.S. government's official web portal to all federal, state and local government web resources and services.